Arcola, Texas
Current Conditions -  °F | °C
As of 12:35 AM on Wednesday 28 Jan 2015 (Local Time) from KAXH Reporting Station
Clear Clear  
Wind Chill: 49°   Ceiling: Unl
Heat Index: 49°   Visibility: 10mi
Dew Point: 48°   Wind: 0mph
Humidity: 97%   Direction: NA
Pressure: 30.15"   Gusts: NA
Location:  29.4042°N, 95.4477°W
Report Text: KAXH 280635Z AUTO 00000KT 10SM CLR 09/09 A3015 RMK AO2 T00920088
Loading
Personal Weather Stations






























Interactive Weather Map New forecast layout! Learn more

10-Day Weather Forecast

Advertisements
Track Severe Weather on mobile